sensor_id;sensor_type;location;lat;lon;timestamp;P1;durP1;ratioP1;P2;durP2;ratioP2
3543;SDS011;1786;52.870;9.578;2023-04-03T00:01:37;4.10;;;1.13;;
3543;SDS011;1786;52.870;9.578;2023-04-03T00:04:04;1.83;;;1.33;;
3543;SDS011;1786;52.870;9.578;2023-04-03T00:06:31;3.13;;;1.50;;
3543;SDS011;1786;52.870;9.578;2023-04-03T00:08:58;2.77;;;1.17;;
3543;SDS011;1786;52.870;9.578;2023-04-03T00:11:24;1.53;;;1.20;;
3543;SDS011;1786;52.870;9.578;2023-04-03T00:13:51;5.43;;;1.50;;
3543;SDS011;1786;52.870;9.578;2023-04-03T00:16:18;3.17;;;1.30;;
3543;SDS011;1786;52.870;9.578;2023-04-03T00:18:45;2.03;;;1.40;;
3543;SDS011;1786;52.870;9.578;2023-04-03T00:21:12;5.50;;;1.20;;
3543;SDS011;1786;52.870;9.578;2023-04-03T00:23:39;5.00;;;1.03;;
3543;SDS011;1786;52.870;9.578;2023-04-03T00:26:06;1.93;;;1.20;;
3543;SDS011;1786;52.870;9.578;2023-04-03T00:28:33;5.23;;;1.37;;
3543;SDS011;1786;52.870;9.578;2023-04-03T00:30:59;4.00;;;1.40;;
3543;SDS011;1786;52.870;9.578;2023-04-03T00:33:26;4.97;;;1.17;;
3543;SDS011;1786;52.870;9.578;2023-04-03T00:35:52;4.33;;;1.93;;
3543;SDS011;1786;52.870;9.578;2023-04-03T00:38:19;3.03;;;1.27;;
3543;SDS011;1786;52.870;9.578;2023-04-03T00:40:47;13.27;;;1.40;;
3543;SDS011;1786;52.870;9.578;2023-04-03T00:43:19;1.60;;;1.10;;
3543;SDS011;1786;52.870;9.578;2023-04-03T00:45:47;3.50;;;1.37;;
3543;SDS011;1786;52.870;9.578;2023-04-03T00:48:19;1.63;;;1.50;;
3543;SDS011;1786;52.870;9.578;2023-04-03T00:50:47;2.60;;;0.93;;
3543;SDS011;1786;52.870;9.578;2023-04-03T00:53:16;3.23;;;1.07;;
3543;SDS011;1786;52.870;9.578;2023-04-03T00:55:44;3.77;;;1.47;;
3543;SDS011;1786;52.870;9.578;2023-04-03T00:58:12;4.70;;;1.70;;
3543;SDS011;1786;52.870;9.578;2023-04-03T01:00:39;2.73;;;1.13;;
3543;SDS011;1786;52.870;9.578;2023-04-03T01:03:06;2.03;;;1.00;;
3543;SDS011;1786;52.870;9.578;2023-04-03T01:05:34;2.00;;;1.33;;
3543;SDS011;1786;52.870;9.578;2023-04-03T01:08:01;1.67;;;1.13;;
3543;SDS011;1786;52.870;9.578;2023-04-03T01:10:28;4.20;;;1.10;;
3543;SDS011;1786;52.870;9.578;2023-04-03T01:12:56;5.40;;;1.20;;
3543;SDS011;1786;52.870;9.578;2023-04-03T01:15:24;1.27;;;1.17;;
3543;SDS011;1786;52.870;9.578;2023-04-03T01:22:48;11.53;;;1.97;;
3543;SDS011;1786;52.870;9.578;2023-04-03T01:25:19;2.63;;;1.20;;
3543;SDS011;1786;52.870;9.578;2023-04-03T01:27:45;4.23;;;1.23;;
3543;SDS011;1786;52.870;9.578;2023-04-03T01:30:12;5.40;;;1.30;;
3543;SDS011;1786;52.870;9.578;2023-04-03T01:32:40;2.03;;;1.23;;
3543;SDS011;1786;52.870;9.578;2023-04-03T01:35:07;8.30;;;1.40;;
3543;SDS011;1786;52.870;9.578;2023-04-03T01:37:34;1.47;;;1.40;;
3543;SDS011;1786;52.870;9.578;2023-04-03T01:40:01;6.60;;;1.47;;
3543;SDS011;1786;52.870;9.578;2023-04-03T01:42:28;0.97;;;0.97;;
3543;SDS011;1786;52.870;9.578;2023-04-03T01:44:55;4.20;;;1.40;;
3543;SDS011;1786;52.870;9.578;2023-04-03T01:47:22;3.20;;;1.70;;
3543;SDS011;1786;52.870;9.578;2023-04-03T01:49:49;11.93;;;2.10;;
3543;SDS011;1786;52.870;9.578;2023-04-03T01:52:16;1.10;;;1.10;;
3543;SDS011;1786;52.870;9.578;2023-04-03T01:54:42;3.23;;;1.17;;
3543;SDS011;1786;52.870;9.578;2023-04-03T01:57:09;1.57;;;1.10;;
3543;SDS011;1786;52.870;9.578;2023-04-03T01:59:36;3.40;;;1.10;;
3543;SDS011;1786;52.870;9.578;2023-04-03T02:02:03;3.57;;;1.30;;
3543;SDS011;1786;52.870;9.578;2023-04-03T02:04:29;9.10;;;1.00;;
3543;SDS011;1786;52.870;9.578;2023-04-03T02:06:56;2.63;;;1.40;;
3543;SDS011;1786;52.870;9.578;2023-04-03T02:09:23;4.47;;;1.80;;
3543;SDS011;1786;52.870;9.578;2023-04-03T02:11:52;1.30;;;1.20;;
3543;SDS011;1786;52.870;9.578;2023-04-03T02:14:18;2.83;;;1.33;;
3543;SDS011;1786;52.870;9.578;2023-04-03T02:16:45;3.53;;;1.33;;
3543;SDS011;1786;52.870;9.578;2023-04-03T02:19:11;2.47;;;1.33;;
3543;SDS011;1786;52.870;9.578;2023-04-03T02:21:39;1.60;;;1.23;;
3543;SDS011;1786;52.870;9.578;2023-04-03T02:24:05;5.73;;;1.87;;
3543;SDS011;1786;52.870;9.578;2023-04-03T02:26:33;4.33;;;1.30;;
3543;SDS011;1786;52.870;9.578;2023-04-03T02:28:59;2.93;;;1.33;;
3543;SDS011;1786;52.870;9.578;2023-04-03T02:31:27;4.83;;;1.40;;
3543;SDS011;1786;52.870;9.578;2023-04-03T02:33:55;4.10;;;2.13;;
3543;SDS011;1786;52.870;9.578;2023-04-03T02:36:21;9.80;;;1.87;;
3543;SDS011;1786;52.870;9.578;2023-04-03T02:38:53;10.83;;;2.13;;
3543;SDS011;1786;52.870;9.578;2023-04-03T02:41:19;5.33;;;1.73;;
3543;SDS011;1786;52.870;9.578;2023-04-03T02:43:49;3.60;;;1.80;;
3543;SDS011;1786;52.870;9.578;2023-04-03T02:46:16;5.70;;;1.63;;
3543;SDS011;1786;52.870;9.578;2023-04-03T02:48:43;5.43;;;1.57;;
3543;SDS011;1786;52.870;9.578;2023-04-03T02:51:09;11.73;;;1.17;;
3543;SDS011;1786;52.870;9.578;2023-04-03T02:53:35;3.43;;;1.47;;
3543;SDS011;1786;52.870;9.578;2023-04-03T02:56:08;2.10;;;1.30;;
3543;SDS011;1786;52.870;9.578;2023-04-03T02:58:35;3.10;;;1.77;;
3543;SDS011;1786;52.870;9.578;2023-04-03T03:01:03;4.10;;;1.50;;
3543;SDS011;1786;52.870;9.578;2023-04-03T03:03:30;3.23;;;1.50;;
3543;SDS011;1786;52.870;9.578;2023-04-03T03:06:01;4.20;;;1.73;;
3543;SDS011;1786;52.870;9.578;2023-04-03T03:08:28;3.50;;;1.50;;
3543;SDS011;1786;52.870;9.578;2023-04-03T03:10:54;6.00;;;1.97;;
3543;SDS011;1786;52.870;9.578;2023-04-03T03:13:21;3.60;;;1.30;;
3543;SDS011;1786;52.870;9.578;2023-04-03T03:15:48;2.73;;;1.10;;
3543;SDS011;1786;52.870;9.578;2023-04-03T03:18:14;7.70;;;1.63;;
3543;SDS011;1786;52.870;9.578;2023-04-03T03:20:41;2.77;;;1.70;;
3543;SDS011;1786;52.870;9.578;2023-04-03T03:23:08;3.80;;;1.40;;
3543;SDS011;1786;52.870;9.578;2023-04-03T03:25:38;2.70;;;1.13;;
3543;SDS011;1786;52.870;9.578;2023-04-03T03:28:06;3.20;;;1.40;;
3543;SDS011;1786;52.870;9.578;2023-04-03T03:30:33;4.47;;;1.60;;
3543;SDS011;1786;52.870;9.578;2023-04-03T03:32:59;4.63;;;1.67;;
3543;SDS011;1786;52.870;9.578;2023-04-03T03:35:26;3.60;;;1.27;;
3543;SDS011;1786;52.870;9.578;2023-04-03T03:37:53;11.53;;;1.60;;
3543;SDS011;1786;52.870;9.578;2023-04-03T03:40:20;10.47;;;1.40;;
3543;SDS011;1786;52.870;9.578;2023-04-03T03:42:47;4.33;;;1.57;;
3543;SDS011;1786;52.870;9.578;2023-04-03T03:45:14;3.60;;;1.50;;
3543;SDS011;1786;52.870;9.578;2023-04-03T03:47:40;6.67;;;3.30;;
3543;SDS011;1786;52.870;9.578;2023-04-03T03:50:08;7.43;;;2.60;;
3543;SDS011;1786;52.870;9.578;2023-04-03T03:52:34;6.40;;;3.10;;
3543;SDS011;1786;52.870;9.578;2023-04-03T03:55:01;9.43;;;8.50;;
3543;SDS011;1786;52.870;9.578;2023-04-03T03:57:28;10.93;;;6.23;;
3543;SDS011;1786;52.870;9.578;2023-04-03T03:59:55;5.30;;;3.33;;
3543;SDS011;1786;52.870;9.578;2023-04-03T04:02:22;2.43;;;2.30;;
3543;SDS011;1786;52.870;9.578;2023-04-03T04:04:49;4.17;;;2.20;;
3543;SDS011;1786;52.870;9.578;2023-04-03T04:07:16;4.00;;;2.57;;
3543;SDS011;1786;52.870;9.578;2023-04-03T04:09:42;2.23;;;2.10;;
3543;SDS011;1786;52.870;9.578;2023-04-03T04:12:09;11.50;;;2.70;;
3543;SDS011;1786;52.870;9.578;2023-04-03T04:14:36;6.20;;;3.50;;
3543;SDS011;1786;52.870;9.578;2023-04-03T04:17:04;4.13;;;1.70;;
3543;SDS011;1786;52.870;9.578;2023-04-03T04:19:31;1.20;;;1.20;;
3543;SDS011;1786;52.870;9.578;2023-04-03T04:21:59;1.33;;;1.23;;
3543;SDS011;1786;52.870;9.578;2023-04-03T04:24:25;3.03;;;1.20;;
3543;SDS011;1786;52.870;9.578;2023-04-03T04:26:54;6.27;;;1.70;;
3543;SDS011;1786;52.870;9.578;2023-04-03T04:29:21;6.43;;;1.60;;
3543;SDS011;1786;52.870;9.578;2023-04-03T04:31:50;4.00;;;1.57;;
3543;SDS011;1786;52.870;9.578;2023-04-03T04:34:17;5.97;;;1.53;;
3543;SDS011;1786;52.870;9.578;2023-04-03T04:36:43;2.30;;;1.33;;
3543;SDS011;1786;52.870;9.578;2023-04-03T04:39:10;3.40;;;1.60;;
3543;SDS011;1786;52.870;9.578;2023-04-03T04:41:37;5.30;;;1.70;;
3543;SDS011;1786;52.870;9.578;2023-04-03T04:44:05;5.57;;;2.07;;
3543;SDS011;1786;52.870;9.578;2023-04-03T04:46:32;4.40;;;1.43;;
3543;SDS011;1786;52.870;9.578;2023-04-03T04:48:59;4.60;;;1.40;;
3543;SDS011;1786;52.870;9.578;2023-04-03T04:51:28;7.13;;;1.80;;
3543;SDS011;1786;52.870;9.578;2023-04-03T04:54:03;13.83;;;1.50;;
3543;SDS011;1786;52.870;9.578;2023-04-03T04:56:30;6.60;;;1.77;;
3543;SDS011;1786;52.870;9.578;2023-04-03T04:58:58;6.23;;;2.00;;
3543;SDS011;1786;52.870;9.578;2023-04-03T05:01:26;7.70;;;2.00;;
3543;SDS011;1786;52.870;9.578;2023-04-03T05:04:06;1.50;;;1.40;;
3543;SDS011;1786;52.870;9.578;2023-04-03T05:06:33;2.13;;;1.57;;
3543;SDS011;1786;52.870;9.578;2023-04-03T05:09:04;2.67;;;1.87;;
3543;SDS011;1786;52.870;9.578;2023-04-03T05:11:33;5.27;;;1.90;;
3543;SDS011;1786;52.870;9.578;2023-04-03T05:14:00;5.43;;;1.70;;
3543;SDS011;1786;52.870;9.578;2023-04-03T05:16:27;4.47;;;1.73;;
3543;SDS011;1786;52.870;9.578;2023-04-03T05:18:54;11.23;;;2.03;;
3543;SDS011;1786;52.870;9.578;2023-04-03T05:21:22;1.83;;;1.60;;
3543;SDS011;1786;52.870;9.578;2023-04-03T05:23:52;4.30;;;1.57;;
3543;SDS011;1786;52.870;9.578;2023-04-03T05:26:18;5.50;;;2.40;;
3543;SDS011;1786;52.870;9.578;2023-04-03T05:28:47;4.00;;;1.60;;
3543;SDS011;1786;52.870;9.578;2023-04-03T05:31:14;5.47;;;4.30;;
3543;SDS011;1786;52.870;9.578;2023-04-03T05:33:41;20.50;;;14.90;;
3543;SDS011;1786;52.870;9.578;2023-04-03T05:36:12;21.47;;;15.43;;
3543;SDS011;1786;52.870;9.578;2023-04-03T05:38:44;14.77;;;8.97;;
3543;SDS011;1786;52.870;9.578;2023-04-03T05:41:11;14.13;;;10.20;;
3543;SDS011;1786;52.870;9.578;2023-04-03T05:43:38;15.27;;;6.87;;
3543;SDS011;1786;52.870;9.578;2023-04-03T05:46:11;12.73;;;5.40;;
3543;SDS011;1786;52.870;9.578;2023-04-03T05:48:38;12.37;;;9.73;;
3543;SDS011;1786;52.870;9.578;2023-04-03T05:51:05;9.27;;;8.10;;
3543;SDS011;1786;52.870;9.578;2023-04-03T05:53:33;2.30;;;2.00;;
3543;SDS011;1786;52.870;9.578;2023-04-03T05:56:03;2.83;;;2.50;;
3543;SDS011;1786;52.870;9.578;2023-04-03T05:58:34;3.90;;;2.10;;
3543;SDS011;1786;52.870;9.578;2023-04-03T06:01:01;2.77;;;2.57;;
3543;SDS011;1786;52.870;9.578;2023-04-03T06:03:27;7.20;;;2.50;;
3543;SDS011;1786;52.870;9.578;2023-04-03T06:05:54;2.93;;;1.77;;
3543;SDS011;1786;52.870;9.578;2023-04-03T06:08:23;3.60;;;2.13;;
3543;SDS011;1786;52.870;9.578;2023-04-03T06:10:50;2.50;;;1.43;;
3543;SDS011;1786;52.870;9.578;2023-04-03T06:13:17;3.70;;;2.60;;
3543;SDS011;1786;52.870;9.578;2023-04-03T06:15:44;4.50;;;1.90;;
3543;SDS011;1786;52.870;9.578;2023-04-03T06:18:10;3.07;;;2.00;;
3543;SDS011;1786;52.870;9.578;2023-04-03T06:20:37;9.57;;;2.03;;
3543;SDS011;1786;52.870;9.578;2023-04-03T06:23:04;2.40;;;1.40;;
3543;SDS011;1786;52.870;9.578;2023-04-03T06:25:34;3.80;;;2.00;;
3543;SDS011;1786;52.870;9.578;2023-04-03T06:28:01;4.00;;;1.93;;
3543;SDS011;1786;52.870;9.578;2023-04-03T06:30:27;2.50;;;1.67;;
3543;SDS011;1786;52.870;9.578;2023-04-03T06:32:54;3.13;;;1.43;;
3543;SDS011;1786;52.870;9.578;2023-04-03T06:35:21;1.80;;;1.70;;
3543;SDS011;1786;52.870;9.578;2023-04-03T06:37:50;1.97;;;1.30;;
3543;SDS011;1786;52.870;9.578;2023-04-03T06:40:18;1.90;;;1.67;;
3543;SDS011;1786;52.870;9.578;2023-04-03T06:42:46;5.60;;;1.43;;
3543;SDS011;1786;52.870;9.578;2023-04-03T06:45:13;1.83;;;1.50;;
3543;SDS011;1786;52.870;9.578;2023-04-03T06:47:39;2.30;;;1.30;;
3543;SDS011;1786;52.870;9.578;2023-04-03T06:50:06;1.93;;;1.10;;
3543;SDS011;1786;52.870;9.578;2023-04-03T06:52:33;3.13;;;1.40;;
3543;SDS011;1786;52.870;9.578;2023-04-03T06:54:59;6.43;;;1.63;;
3543;SDS011;1786;52.870;9.578;2023-04-03T06:57:26;1.27;;;1.27;;
3543;SDS011;1786;52.870;9.578;2023-04-03T06:59:53;3.50;;;1.97;;
3543;SDS011;1786;52.870;9.578;2023-04-03T07:02:19;4.87;;;1.67;;
3543;SDS011;1786;52.870;9.578;2023-04-03T07:04:47;1.90;;;1.33;;
3543;SDS011;1786;52.870;9.578;2023-04-03T07:07:13;1.33;;;1.23;;
3543;SDS011;1786;52.870;9.578;2023-04-03T07:09:40;2.80;;;1.27;;
3543;SDS011;1786;52.870;9.578;2023-04-03T07:12:08;5.47;;;1.47;;
3543;SDS011;1786;52.870;9.578;2023-04-03T07:14:35;7.20;;;2.53;;
3543;SDS011;1786;52.870;9.578;2023-04-03T07:17:01;2.83;;;1.30;;
3543;SDS011;1786;52.870;9.578;2023-04-03T07:19:28;1.43;;;1.27;;
3543;SDS011;1786;52.870;9.578;2023-04-03T07:21:54;2.20;;;1.20;;
3543;SDS011;1786;52.870;9.578;2023-04-03T07:24:21;3.03;;;1.40;;
3543;SDS011;1786;52.870;9.578;2023-04-03T07:26:51;2.17;;;1.10;;
3543;SDS011;1786;52.870;9.578;2023-04-03T07:29:18;5.10;;;1.27;;
3543;SDS011;1786;52.870;9.578;2023-04-03T07:31:47;1.70;;;1.50;;
3543;SDS011;1786;52.870;9.578;2023-04-03T07:34:14;2.37;;;1.10;;
3543;SDS011;1786;52.870;9.578;2023-04-03T07:36:41;1.23;;;1.13;;
3543;SDS011;1786;52.870;9.578;2023-04-03T07:39:07;1.50;;;1.10;;
3543;SDS011;1786;52.870;9.578;2023-04-03T07:41:34;3.07;;;1.20;;
3543;SDS011;1786;52.870;9.578;2023-04-03T07:44:00;2.33;;;1.90;;
3543;SDS011;1786;52.870;9.578;2023-04-03T07:46:27;4.87;;;1.70;;
3543;SDS011;1786;52.870;9.578;2023-04-03T07:48:54;1.57;;;1.17;;
3543;SDS011;1786;52.870;9.578;2023-04-03T07:51:23;4.57;;;2.60;;
3543;SDS011;1786;52.870;9.578;2023-04-03T07:53:51;3.90;;;1.30;;
3543;SDS011;1786;52.870;9.578;2023-04-03T07:56:17;3.27;;;1.43;;
3543;SDS011;1786;52.870;9.578;2023-04-03T07:58:44;3.70;;;2.43;;
3543;SDS011;1786;52.870;9.578;2023-04-03T08:01:11;4.53;;;2.30;;
3543;SDS011;1786;52.870;9.578;2023-04-03T08:03:38;2.03;;;1.17;;
3543;SDS011;1786;52.870;9.578;2023-04-03T08:06:06;2.53;;;1.30;;
3543;SDS011;1786;52.870;9.578;2023-04-03T08:08:40;2.20;;;1.10;;
3543;SDS011;1786;52.870;9.578;2023-04-03T08:11:07;5.30;;;1.00;;
3543;SDS011;1786;52.870;9.578;2023-04-03T08:13:34;3.80;;;1.20;;
3543;SDS011;1786;52.870;9.578;2023-04-03T08:16:08;2.53;;;1.10;;
3543;SDS011;1786;52.870;9.578;2023-04-03T08:18:35;1.63;;;1.20;;
3543;SDS011;1786;52.870;9.578;2023-04-03T08:21:04;3.37;;;1.00;;
3543;SDS011;1786;52.870;9.578;2023-04-03T08:23:31;2.57;;;2.03;;
3543;SDS011;1786;52.870;9.578;2023-04-03T08:25:57;1.10;;;1.00;;
3543;SDS011;1786;52.870;9.578;2023-04-03T08:28:24;3.23;;;1.07;;
3543;SDS011;1786;52.870;9.578;2023-04-03T08:30:50;3.23;;;1.20;;
3543;SDS011;1786;52.870;9.578;2023-04-03T08:33:17;2.80;;;1.73;;
3543;SDS011;1786;52.870;9.578;2023-04-03T08:35:43;2.43;;;1.33;;
3543;SDS011;1786;52.870;9.578;2023-04-03T08:38:10;3.27;;;1.67;;
3543;SDS011;1786;52.870;9.578;2023-04-03T08:40:37;1.20;;;1.10;;
3543;SDS011;1786;52.870;9.578;2023-04-03T08:43:10;1.60;;;1.27;;
3543;SDS011;1786;52.870;9.578;2023-04-03T08:45:48;1.73;;;0.90;;
3543;SDS011;1786;52.870;9.578;2023-04-03T08:48:21;2.20;;;1.10;;
3543;SDS011;1786;52.870;9.578;2023-04-03T08:50:51;4.77;;;2.07;;
3543;SDS011;1786;52.870;9.578;2023-04-03T08:53:20;2.60;;;1.00;;
3543;SDS011;1786;52.870;9.578;2023-04-03T08:55:49;1.30;;;1.00;;
3543;SDS011;1786;52.870;9.578;2023-04-03T08:58:26;0.90;;;0.90;;
3543;SDS011;1786;52.870;9.578;2023-04-03T09:00:56;1.37;;;1.17;;
3543;SDS011;1786;52.870;9.578;2023-04-03T09:03:23;8.30;;;1.00;;
3543;SDS011;1786;52.870;9.578;2023-04-03T09:08:37;0.80;;;0.80;;
3543;SDS011;1786;52.870;9.578;2023-04-03T09:11:09;2.73;;;1.10;;
3543;SDS011;1786;52.870;9.578;2023-04-03T09:13:42;2.00;;;1.00;;
3543;SDS011;1786;52.870;9.578;2023-04-03T09:19:09;1.97;;;1.20;;
3543;SDS011;1786;52.870;9.578;2023-04-03T09:21:38;4.00;;;1.30;;
3543;SDS011;1786;52.870;9.578;2023-04-03T09:24:05;2.47;;;1.33;;
3543;SDS011;1786;52.870;9.578;2023-04-03T09:26:34;1.80;;;0.90;;
3543;SDS011;1786;52.870;9.578;2023-04-03T09:29:04;1.13;;;0.80;;
3543;SDS011;1786;52.870;9.578;2023-04-03T09:31:36;2.03;;;1.17;;
3543;SDS011;1786;52.870;9.578;2023-04-03T09:34:08;1.20;;;0.70;;
3543;SDS011;1786;52.870;9.578;2023-04-03T09:36:37;1.13;;;0.80;;
3543;SDS011;1786;52.870;9.578;2023-04-03T09:39:11;1.00;;;0.90;;
3543;SDS011;1786;52.870;9.578;2023-04-03T09:41:38;7.30;;;1.03;;
3543;SDS011;1786;52.870;9.578;2023-04-03T09:44:17;2.47;;;1.37;;
3543;SDS011;1786;52.870;9.578;2023-04-03T09:46:46;1.40;;;1.30;;
3543;SDS011;1786;52.870;9.578;2023-04-03T09:49:13;0.90;;;0.90;;
3543;SDS011;1786;52.870;9.578;2023-04-03T09:51:39;3.43;;;0.90;;
3543;SDS011;1786;52.870;9.578;2023-04-03T09:54:26;1.90;;;0.87;;
3543;SDS011;1786;52.870;9.578;2023-04-03T09:56:57;5.60;;;1.00;;
3543;SDS011;1786;52.870;9.578;2023-04-03T09:59:24;1.83;;;0.93;;
3543;SDS011;1786;52.870;9.578;2023-04-03T10:01:59;0.60;;;0.60;;
3543;SDS011;1786;52.870;9.578;2023-04-03T10:04:27;2.00;;;0.80;;
3543;SDS011;1786;52.870;9.578;2023-04-03T10:07:03;5.30;;;1.60;;
3543;SDS011;1786;52.870;9.578;2023-04-03T10:09:30;0.70;;;0.70;;
3543;SDS011;1786;52.870;9.578;2023-04-03T10:14:28;0.73;;;0.70;;
3543;SDS011;1786;52.870;9.578;2023-04-03T10:19:30;1.90;;;0.70;;
3543;SDS011;1786;52.870;9.578;2023-04-03T10:21:59;2.03;;;1.23;;
3543;SDS011;1786;52.870;9.578;2023-04-03T10:24:29;1.90;;;1.13;;
3543;SDS011;1786;52.870;9.578;2023-04-03T10:27:01;0.93;;;0.77;;
3543;SDS011;1786;52.870;9.578;2023-04-03T10:29:48;3.00;;;1.20;;
3543;SDS011;1786;52.870;9.578;2023-04-03T10:32:36;1.37;;;1.20;;
3543;SDS011;1786;52.870;9.578;2023-04-03T10:40:28;3.00;;;1.00;;
3543;SDS011;1786;52.870;9.578;2023-04-03T10:53:17;1.27;;;0.80;;
3543;SDS011;1786;52.870;9.578;2023-04-03T10:58:17;5.67;;;1.10;;
3543;SDS011;1786;52.870;9.578;2023-04-03T11:00:45;1.00;;;0.90;;
3543;SDS011;1786;52.870;9.578;2023-04-03T11:05:59;1.07;;;0.80;;
3543;SDS011;1786;52.870;9.578;2023-04-03T11:10:55;1.37;;;1.03;;
3543;SDS011;1786;52.870;9.578;2023-04-03T11:13:28;1.53;;;0.93;;
3543;SDS011;1786;52.870;9.578;2023-04-03T11:15:58;0.70;;;0.70;;
3543;SDS011;1786;52.870;9.578;2023-04-03T11:18:27;2.53;;;0.83;;
3543;SDS011;1786;52.870;9.578;2023-04-03T11:23:50;0.83;;;0.83;;
3543;SDS011;1786;52.870;9.578;2023-04-03T11:26:19;3.40;;;1.00;;
3543;SDS011;1786;52.870;9.578;2023-04-03T11:28:47;0.50;;;0.50;;
3543;SDS011;1786;52.870;9.578;2023-04-03T11:31:40;0.80;;;0.80;;
3543;SDS011;1786;52.870;9.578;2023-04-03T11:34:19;1.27;;;0.70;;
3543;SDS011;1786;52.870;9.578;2023-04-03T11:36:49;1.57;;;1.03;;
3543;SDS011;1786;52.870;9.578;2023-04-03T11:41:43;2.00;;;1.00;;
3543;SDS011;1786;52.870;9.578;2023-04-03T11:44:53;3.77;;;0.73;;
3543;SDS011;1786;52.870;9.578;2023-04-03T11:47:01;1.50;;;0.70;;
3543;SDS011;1786;52.870;9.578;2023-04-03T11:52:13;0.93;;;0.70;;
3543;SDS011;1786;52.870;9.578;2023-04-03T11:55:00;0.67;;;0.60;;
3543;SDS011;1786;52.870;9.578;2023-04-03T11:58:12;0.60;;;0.60;;
3543;SDS011;1786;52.870;9.578;2023-04-03T12:16:32;1.33;;;0.80;;
3543;SDS011;1786;52.870;9.578;2023-04-03T12:26:48;0.83;;;0.83;;
3543;SDS011;1786;52.870;9.578;2023-04-03T12:29:21;0.93;;;0.80;;
3543;SDS011;1786;52.870;9.578;2023-04-03T12:31:55;0.93;;;0.83;;
3543;SDS011;1786;52.870;9.578;2023-04-03T12:40:01;1.43;;;0.80;;
3543;SDS011;1786;52.870;9.578;2023-04-03T12:42:38;0.77;;;0.77;;
3543;SDS011;1786;52.870;9.578;2023-04-03T12:45:19;1.63;;;1.00;;
3543;SDS011;1786;52.870;9.578;2023-04-03T12:47:48;1.00;;;0.90;;
3543;SDS011;1786;52.870;9.578;2023-04-03T12:50:20;2.20;;;0.90;;
3543;SDS011;1786;52.870;9.578;2023-04-03T12:52:50;3.23;;;0.80;;
3543;SDS011;1786;52.870;9.578;2023-04-03T12:55:18;1.30;;;1.20;;
3543;SDS011;1786;52.870;9.578;2023-04-03T12:57:44;2.80;;;1.90;;
3543;SDS011;1786;52.870;9.578;2023-04-03T13:00:31;5.00;;;2.37;;
3543;SDS011;1786;52.870;9.578;2023-04-03T13:03:00;1.23;;;1.13;;
3543;SDS011;1786;52.870;9.578;2023-04-03T13:05:27;1.43;;;0.70;;
3543;SDS011;1786;52.870;9.578;2023-04-03T13:08:01;0.90;;;0.90;;
3543;SDS011;1786;52.870;9.578;2023-04-03T13:10:29;1.63;;;1.30;;
3543;SDS011;1786;52.870;9.578;2023-04-03T13:12:57;1.10;;;0.93;;
3543;SDS011;1786;52.870;9.578;2023-04-03T13:15:29;1.47;;;1.07;;
3543;SDS011;1786;52.870;9.578;2023-04-03T13:17:56;6.27;;;1.63;;
3543;SDS011;1786;52.870;9.578;2023-04-03T13:20:26;1.50;;;1.30;;
3543;SDS011;1786;52.870;9.578;2023-04-03T13:22:58;1.27;;;1.10;;
3543;SDS011;1786;52.870;9.578;2023-04-03T13:25:27;2.50;;;1.00;;
3543;SDS011;1786;52.870;9.578;2023-04-03T13:27:54;1.60;;;1.10;;
3543;SDS011;1786;52.870;9.578;2023-04-03T13:30:37;9.30;;;4.60;;
3543;SDS011;1786;52.870;9.578;2023-04-03T13:33:27;2.70;;;1.27;;
3543;SDS011;1786;52.870;9.578;2023-04-03T13:35:56;7.50;;;1.00;;
3543;SDS011;1786;52.870;9.578;2023-04-03T13:38:24;2.20;;;1.73;;
3543;SDS011;1786;52.870;9.578;2023-04-03T13:40:53;3.47;;;1.40;;
3543;SDS011;1786;52.870;9.578;2023-04-03T13:43:21;0.90;;;0.90;;
3543;SDS011;1786;52.870;9.578;2023-04-03T13:46:05;1.60;;;1.00;;
3543;SDS011;1786;52.870;9.578;2023-04-03T13:48:37;2.40;;;1.00;;
3543;SDS011;1786;52.870;9.578;2023-04-03T13:51:05;0.73;;;0.73;;
3543;SDS011;1786;52.870;9.578;2023-04-03T13:53:33;1.03;;;0.90;;
3543;SDS011;1786;52.870;9.578;2023-04-03T13:58:30;1.93;;;1.20;;
3543;SDS011;1786;52.870;9.578;2023-04-03T14:01:07;3.27;;;1.07;;
3543;SDS011;1786;52.870;9.578;2023-04-03T14:03:42;2.23;;;1.10;;
3543;SDS011;1786;52.870;9.578;2023-04-03T14:06:13;0.70;;;0.70;;
3543;SDS011;1786;52.870;9.578;2023-04-03T14:08:42;3.47;;;1.10;;
3543;SDS011;1786;52.870;9.578;2023-04-03T14:11:13;1.57;;;1.10;;
3543;SDS011;1786;52.870;9.578;2023-04-03T14:13:41;5.77;;;1.10;;
3543;SDS011;1786;52.870;9.578;2023-04-03T14:16:11;1.47;;;1.03;;
3543;SDS011;1786;52.870;9.578;2023-04-03T14:18:42;0.80;;;0.80;;
3543;SDS011;1786;52.870;9.578;2023-04-03T14:21:10;1.20;;;1.10;;
3543;SDS011;1786;52.870;9.578;2023-04-03T14:23:37;5.30;;;1.17;;
3543;SDS011;1786;52.870;9.578;2023-04-03T14:26:08;1.53;;;1.20;;
3543;SDS011;1786;52.870;9.578;2023-04-03T14:28:36;1.67;;;1.57;;
3543;SDS011;1786;52.870;9.578;2023-04-03T14:31:02;1.50;;;0.97;;
3543;SDS011;1786;52.870;9.578;2023-04-03T14:33:28;2.83;;;2.23;;
3543;SDS011;1786;52.870;9.578;2023-04-03T14:35:57;3.30;;;1.77;;
3543;SDS011;1786;52.870;9.578;2023-04-03T14:38:25;2.57;;;2.07;;
3543;SDS011;1786;52.870;9.578;2023-04-03T14:40:53;3.80;;;1.27;;
3543;SDS011;1786;52.870;9.578;2023-04-03T14:43:24;2.00;;;1.20;;
3543;SDS011;1786;52.870;9.578;2023-04-03T14:45:51;1.53;;;1.17;;
3543;SDS011;1786;52.870;9.578;2023-04-03T14:48:20;1.17;;;0.90;;
3543;SDS011;1786;52.870;9.578;2023-04-03T14:50:47;1.93;;;1.40;;
3543;SDS011;1786;52.870;9.578;2023-04-03T14:53:30;1.17;;;1.10;;
3543;SDS011;1786;52.870;9.578;2023-04-03T14:56:10;4.37;;;0.90;;
3543;SDS011;1786;52.870;9.578;2023-04-03T14:58:37;3.73;;;2.40;;
3543;SDS011;1786;52.870;9.578;2023-04-03T15:01:03;3.23;;;2.30;;
3543;SDS011;1786;52.870;9.578;2023-04-03T15:03:30;5.07;;;2.17;;
3543;SDS011;1786;52.870;9.578;2023-04-03T15:05:56;1.80;;;1.00;;
3543;SDS011;1786;52.870;9.578;2023-04-03T15:08:25;9.43;;;3.60;;
3543;SDS011;1786;52.870;9.578;2023-04-03T15:10:53;8.50;;;1.60;;
3543;SDS011;1786;52.870;9.578;2023-04-03T15:13:23;1.10;;;1.00;;
3543;SDS011;1786;52.870;9.578;2023-04-03T15:15:50;3.30;;;1.23;;
3543;SDS011;1786;52.870;9.578;2023-04-03T15:18:21;1.43;;;1.10;;
3543;SDS011;1786;52.870;9.578;2023-04-03T15:20:49;1.20;;;1.03;;
3543;SDS011;1786;52.870;9.578;2023-04-03T15:23:16;0.90;;;0.90;;
3543;SDS011;1786;52.870;9.578;2023-04-03T15:26:03;1.67;;;1.20;;
3543;SDS011;1786;52.870;9.578;2023-04-03T15:28:51;1.57;;;1.47;;
3543;SDS011;1786;52.870;9.578;2023-04-03T15:31:17;1.67;;;1.13;;
3543;SDS011;1786;52.870;9.578;2023-04-03T15:33:44;1.47;;;1.13;;
3543;SDS011;1786;52.870;9.578;2023-04-03T15:36:10;4.07;;;0.90;;
3543;SDS011;1786;52.870;9.578;2023-04-03T15:38:57;4.53;;;0.97;;
3543;SDS011;1786;52.870;9.578;2023-04-03T15:41:24;2.70;;;1.30;;
3543;SDS011;1786;52.870;9.578;2023-04-03T15:43:50;3.40;;;0.97;;
3543;SDS011;1786;52.870;9.578;2023-04-03T15:46:17;8.80;;;1.37;;
3543;SDS011;1786;52.870;9.578;2023-04-03T15:48:43;1.63;;;1.53;;
3543;SDS011;1786;52.870;9.578;2023-04-03T15:51:10;2.00;;;1.10;;
3543;SDS011;1786;52.870;9.578;2023-04-03T15:53:37;2.30;;;1.20;;
3543;SDS011;1786;52.870;9.578;2023-04-03T15:56:04;1.50;;;1.00;;
3543;SDS011;1786;52.870;9.578;2023-04-03T15:58:31;3.37;;;1.23;;
3543;SDS011;1786;52.870;9.578;2023-04-03T16:00:57;3.33;;;1.33;;
3543;SDS011;1786;52.870;9.578;2023-04-03T16:03:24;1.90;;;1.10;;
3543;SDS011;1786;52.870;9.578;2023-04-03T16:05:51;3.63;;;1.50;;
3543;SDS011;1786;52.870;9.578;2023-04-03T16:08:18;2.30;;;1.17;;
3543;SDS011;1786;52.870;9.578;2023-04-03T16:10:45;1.73;;;0.90;;
3543;SDS011;1786;52.870;9.578;2023-04-03T16:13:13;2.87;;;1.00;;
3543;SDS011;1786;52.870;9.578;2023-04-03T16:15:40;1.37;;;0.80;;
3543;SDS011;1786;52.870;9.578;2023-04-03T16:18:07;0.80;;;0.80;;
3543;SDS011;1786;52.870;9.578;2023-04-03T16:20:34;1.20;;;1.20;;
3543;SDS011;1786;52.870;9.578;2023-04-03T16:23:00;0.90;;;0.90;;
3543;SDS011;1786;52.870;9.578;2023-04-03T16:25:27;5.03;;;0.90;;
3543;SDS011;1786;52.870;9.578;2023-04-03T16:27:54;1.07;;;1.07;;
3543;SDS011;1786;52.870;9.578;2023-04-03T16:30:20;2.57;;;1.17;;
3543;SDS011;1786;52.870;9.578;2023-04-03T16:32:47;0.70;;;0.70;;
3543;SDS011;1786;52.870;9.578;2023-04-03T16:35:14;4.20;;;1.27;;
3543;SDS011;1786;52.870;9.578;2023-04-03T16:37:40;1.80;;;1.10;;
3543;SDS011;1786;52.870;9.578;2023-04-03T16:40:07;3.00;;;1.20;;
3543;SDS011;1786;52.870;9.578;2023-04-03T16:42:34;1.57;;;1.37;;
3543;SDS011;1786;52.870;9.578;2023-04-03T16:45:04;1.27;;;0.83;;